sensor_id;sensor_type;location;lat;lon;timestamp;P1;durP1;ratioP1;P2;durP2;ratioP2
25069;SDS011;13064;48.162;11.536;2023-04-21T00:00:52;22.42;;;17.35;;
25069;SDS011;13064;48.162;11.536;2023-04-21T00:03:20;26.67;;;16.20;;
25069;SDS011;13064;48.162;11.536;2023-04-21T00:05:50;22.85;;;16.73;;
25069;SDS011;13064;48.162;11.536;2023-04-21T00:08:18;23.75;;;17.20;;
25069;SDS011;13064;48.162;11.536;2023-04-21T00:10:46;24.15;;;17.38;;
25069;SDS011;13064;48.162;11.536;2023-04-21T00:13:13;22.73;;;16.85;;
25069;SDS011;13064;48.162;11.536;2023-04-21T00:15:41;24.17;;;18.05;;
25069;SDS011;13064;48.162;11.536;2023-04-21T00:18:09;27.17;;;18.20;;
25069;SDS011;13064;48.162;11.536;2023-04-21T00:20:38;24.75;;;17.33;;
25069;SDS011;13064;48.162;11.536;2023-04-21T00:23:07;23.27;;;17.40;;
25069;SDS011;13064;48.162;11.536;2023-04-21T00:25:36;23.55;;;16.77;;
25069;SDS011;13064;48.162;11.536;2023-04-21T00:28:04;24.42;;;18.15;;
25069;SDS011;13064;48.162;11.536;2023-04-21T00:30:31;23.98;;;16.38;;
25069;SDS011;13064;48.162;11.536;2023-04-21T00:32:59;25.30;;;17.90;;
25069;SDS011;13064;48.162;11.536;2023-04-21T00:35:28;27.17;;;16.73;;
25069;SDS011;13064;48.162;11.536;2023-04-21T00:37:56;24.60;;;17.02;;
25069;SDS011;13064;48.162;11.536;2023-04-21T00:40:24;24.23;;;17.42;;
25069;SDS011;13064;48.162;11.536;2023-04-21T00:42:52;27.55;;;17.88;;
25069;SDS011;13064;48.162;11.536;2023-04-21T00:45:19;23.60;;;17.10;;
25069;SDS011;13064;48.162;11.536;2023-04-21T00:47:48;29.65;;;18.63;;
25069;SDS011;13064;48.162;11.536;2023-04-21T00:50:16;27.33;;;18.30;;
25069;SDS011;13064;48.162;11.536;2023-04-21T00:52:44;28.05;;;18.08;;
25069;SDS011;13064;48.162;11.536;2023-04-21T00:55:12;30.35;;;18.50;;
25069;SDS011;13064;48.162;11.536;2023-04-21T00:57:41;28.70;;;18.73;;
25069;SDS011;13064;48.162;11.536;2023-04-21T01:00:09;27.38;;;18.02;;
25069;SDS011;13064;48.162;11.536;2023-04-21T01:02:38;28.55;;;18.50;;
25069;SDS011;13064;48.162;11.536;2023-04-21T01:05:06;29.98;;;18.50;;
25069;SDS011;13064;48.162;11.536;2023-04-21T01:07:37;28.20;;;18.27;;
25069;SDS011;13064;48.162;11.536;2023-04-21T01:10:04;29.70;;;17.60;;
25069;SDS011;13064;48.162;11.536;2023-04-21T01:12:32;28.38;;;17.92;;
25069;SDS011;13064;48.162;11.536;2023-04-21T01:15:01;28.70;;;18.60;;
25069;SDS011;13064;48.162;11.536;2023-04-21T01:17:29;26.25;;;17.48;;
25069;SDS011;13064;48.162;11.536;2023-04-21T01:19:57;27.25;;;18.63;;
25069;SDS011;13064;48.162;11.536;2023-04-21T01:22:25;30.00;;;19.63;;
25069;SDS011;13064;48.162;11.536;2023-04-21T01:24:53;27.60;;;17.58;;
25069;SDS011;13064;48.162;11.536;2023-04-21T01:27:20;23.50;;;17.38;;
25069;SDS011;13064;48.162;11.536;2023-04-21T01:29:49;24.33;;;16.90;;
25069;SDS011;13064;48.162;11.536;2023-04-21T01:32:19;26.67;;;17.92;;
25069;SDS011;13064;48.162;11.536;2023-04-21T01:34:47;29.20;;;18.67;;
25069;SDS011;13064;48.162;11.536;2023-04-21T01:37:17;27.45;;;18.35;;
25069;SDS011;13064;48.162;11.536;2023-04-21T01:39:46;25.10;;;17.60;;
25069;SDS011;13064;48.162;11.536;2023-04-21T01:42:18;28.05;;;18.48;;
25069;SDS011;13064;48.162;11.536;2023-04-21T01:44:45;30.27;;;18.42;;
25069;SDS011;13064;48.162;11.536;2023-04-21T01:47:16;25.83;;;17.65;;
25069;SDS011;13064;48.162;11.536;2023-04-21T01:49:44;24.08;;;16.55;;
25069;SDS011;13064;48.162;11.536;2023-04-21T01:52:12;23.58;;;16.60;;
25069;SDS011;13064;48.162;11.536;2023-04-21T01:54:40;25.58;;;17.50;;
25069;SDS011;13064;48.162;11.536;2023-04-21T01:57:07;27.50;;;18.42;;
25069;SDS011;13064;48.162;11.536;2023-04-21T01:59:35;24.33;;;16.35;;
25069;SDS011;13064;48.162;11.536;2023-04-21T02:02:02;27.45;;;16.70;;
25069;SDS011;13064;48.162;11.536;2023-04-21T02:04:32;25.60;;;16.25;;
25069;SDS011;13064;48.162;11.536;2023-04-21T02:07:00;25.67;;;16.67;;
25069;SDS011;13064;48.162;11.536;2023-04-21T02:09:28;25.90;;;17.17;;
25069;SDS011;13064;48.162;11.536;2023-04-21T02:11:56;25.80;;;17.25;;
25069;SDS011;13064;48.162;11.536;2023-04-21T02:14:24;25.60;;;16.58;;
25069;SDS011;13064;48.162;11.536;2023-04-21T02:16:52;26.55;;;16.75;;
25069;SDS011;13064;48.162;11.536;2023-04-21T02:19:21;25.33;;;16.65;;
25069;SDS011;13064;48.162;11.536;2023-04-21T02:21:49;24.67;;;15.75;;
25069;SDS011;13064;48.162;11.536;2023-04-21T02:24:20;26.67;;;16.67;;
25069;SDS011;13064;48.162;11.536;2023-04-21T02:26:48;25.85;;;15.63;;
25069;SDS011;13064;48.162;11.536;2023-04-21T02:29:15;26.65;;;15.32;;
25069;SDS011;13064;48.162;11.536;2023-04-21T02:31:43;23.65;;;14.93;;
25069;SDS011;13064;48.162;11.536;2023-04-21T02:34:26;23.73;;;14.40;;
25069;SDS011;13064;48.162;11.536;2023-04-21T02:36:54;24.80;;;15.00;;
25069;SDS011;13064;48.162;11.536;2023-04-21T02:39:22;23.48;;;15.30;;
25069;SDS011;13064;48.162;11.536;2023-04-21T02:41:49;22.35;;;14.48;;
25069;SDS011;13064;48.162;11.536;2023-04-21T02:44:17;24.98;;;15.02;;
25069;SDS011;13064;48.162;11.536;2023-04-21T02:46:44;24.45;;;14.52;;
25069;SDS011;13064;48.162;11.536;2023-04-21T02:49:13;21.73;;;14.15;;
25069;SDS011;13064;48.162;11.536;2023-04-21T02:51:40;22.05;;;13.82;;
25069;SDS011;13064;48.162;11.536;2023-04-21T02:54:08;23.35;;;14.43;;
25069;SDS011;13064;48.162;11.536;2023-04-21T02:56:36;23.77;;;14.77;;
25069;SDS011;13064;48.162;11.536;2023-04-21T02:59:05;23.48;;;15.18;;
25069;SDS011;13064;48.162;11.536;2023-04-21T03:01:33;24.45;;;14.93;;
25069;SDS011;13064;48.162;11.536;2023-04-21T03:04:00;27.58;;;15.15;;
25069;SDS011;13064;48.162;11.536;2023-04-21T03:06:31;27.45;;;15.65;;
25069;SDS011;13064;48.162;11.536;2023-04-21T03:08:59;23.88;;;15.10;;
25069;SDS011;13064;48.162;11.536;2023-04-21T03:11:26;27.48;;;16.23;;
25069;SDS011;13064;48.162;11.536;2023-04-21T03:13:54;24.58;;;15.40;;
25069;SDS011;13064;48.162;11.536;2023-04-21T03:16:22;23.83;;;15.63;;
25069;SDS011;13064;48.162;11.536;2023-04-21T03:18:49;24.38;;;15.55;;
25069;SDS011;13064;48.162;11.536;2023-04-21T03:21:17;25.70;;;15.38;;
25069;SDS011;13064;48.162;11.536;2023-04-21T03:23:45;26.90;;;16.08;;
25069;SDS011;13064;48.162;11.536;2023-04-21T03:26:13;25.60;;;15.02;;
25069;SDS011;13064;48.162;11.536;2023-04-21T03:28:41;26.27;;;16.20;;
25069;SDS011;13064;48.162;11.536;2023-04-21T03:31:08;23.60;;;15.27;;
25069;SDS011;13064;48.162;11.536;2023-04-21T03:33:36;28.55;;;15.35;;
25069;SDS011;13064;48.162;11.536;2023-04-21T03:36:04;24.55;;;15.60;;
25069;SDS011;13064;48.162;11.536;2023-04-21T03:38:32;23.52;;;15.15;;
25069;SDS011;13064;48.162;11.536;2023-04-21T03:41:02;24.55;;;15.30;;
25069;SDS011;13064;48.162;11.536;2023-04-21T03:43:30;27.00;;;15.82;;
25069;SDS011;13064;48.162;11.536;2023-04-21T03:45:58;22.70;;;15.15;;
25069;SDS011;13064;48.162;11.536;2023-04-21T03:48:26;25.20;;;16.30;;
25069;SDS011;13064;48.162;11.536;2023-04-21T03:50:55;24.50;;;15.95;;
25069;SDS011;13064;48.162;11.536;2023-04-21T03:53:22;25.10;;;15.20;;
25069;SDS011;13064;48.162;11.536;2023-04-21T03:55:50;23.90;;;15.63;;
25069;SDS011;13064;48.162;11.536;2023-04-21T03:58:18;26.17;;;16.95;;
25069;SDS011;13064;48.162;11.536;2023-04-21T04:00:45;25.42;;;15.55;;
25069;SDS011;13064;48.162;11.536;2023-04-21T04:03:13;25.02;;;15.45;;
25069;SDS011;13064;48.162;11.536;2023-04-21T04:05:41;25.98;;;15.55;;
25069;SDS011;13064;48.162;11.536;2023-04-21T04:08:09;24.65;;;15.02;;
25069;SDS011;13064;48.162;11.536;2023-04-21T04:10:36;28.05;;;16.00;;
25069;SDS011;13064;48.162;11.536;2023-04-21T04:13:04;23.98;;;15.48;;
25069;SDS011;13064;48.162;11.536;2023-04-21T04:15:32;24.95;;;14.52;;
25069;SDS011;13064;48.162;11.536;2023-04-21T04:17:59;25.52;;;16.50;;
25069;SDS011;13064;48.162;11.536;2023-04-21T04:20:27;23.50;;;14.27;;
25069;SDS011;13064;48.162;11.536;2023-04-21T04:22:55;22.13;;;14.02;;
25069;SDS011;13064;48.162;11.536;2023-04-21T04:25:22;25.00;;;14.65;;
25069;SDS011;13064;48.162;11.536;2023-04-21T04:27:50;23.08;;;14.23;;
25069;SDS011;13064;48.162;11.536;2023-04-21T04:30:19;23.52;;;13.85;;
25069;SDS011;13064;48.162;11.536;2023-04-21T04:32:47;67.70;;;19.92;;
25069;SDS011;13064;48.162;11.536;2023-04-21T04:35:14;38.35;;;20.20;;
25069;SDS011;13064;48.162;11.536;2023-04-21T04:37:42;23.15;;;15.35;;
25069;SDS011;13064;48.162;11.536;2023-04-21T04:40:11;23.45;;;13.43;;
25069;SDS011;13064;48.162;11.536;2023-04-21T04:42:38;23.55;;;14.88;;
25069;SDS011;13064;48.162;11.536;2023-04-21T04:45:06;28.67;;;16.92;;
25069;SDS011;13064;48.162;11.536;2023-04-21T04:47:34;25.02;;;16.80;;
25069;SDS011;13064;48.162;11.536;2023-04-21T04:50:03;28.23;;;17.27;;
25069;SDS011;13064;48.162;11.536;2023-04-21T04:52:30;27.23;;;16.08;;
25069;SDS011;13064;48.162;11.536;2023-04-21T04:54:58;27.67;;;16.73;;
25069;SDS011;13064;48.162;11.536;2023-04-21T04:57:26;23.15;;;14.80;;
25069;SDS011;13064;48.162;11.536;2023-04-21T04:59:54;27.20;;;17.08;;
25069;SDS011;13064;48.162;11.536;2023-04-21T05:02:21;29.08;;;16.90;;
25069;SDS011;13064;48.162;11.536;2023-04-21T05:04:50;30.55;;;17.20;;
25069;SDS011;13064;48.162;11.536;2023-04-21T05:07:18;25.35;;;16.48;;
25069;SDS011;13064;48.162;11.536;2023-04-21T05:09:45;26.25;;;16.00;;
25069;SDS011;13064;48.162;11.536;2023-04-21T05:12:13;27.05;;;16.58;;
25069;SDS011;13064;48.162;11.536;2023-04-21T05:17:33;26.27;;;15.57;;
25069;SDS011;13064;48.162;11.536;2023-04-21T05:20:02;28.35;;;16.60;;
25069;SDS011;13064;48.162;11.536;2023-04-21T05:22:30;23.13;;;15.57;;
25069;SDS011;13064;48.162;11.536;2023-04-21T05:24:58;27.38;;;16.08;;
25069;SDS011;13064;48.162;11.536;2023-04-21T05:27:25;23.35;;;16.30;;
25069;SDS011;13064;48.162;11.536;2023-04-21T05:29:53;24.20;;;16.25;;
25069;SDS011;13064;48.162;11.536;2023-04-21T05:32:21;25.10;;;16.13;;
25069;SDS011;13064;48.162;11.536;2023-04-21T05:34:48;26.52;;;16.58;;
25069;SDS011;13064;48.162;11.536;2023-04-21T05:37:16;24.75;;;16.30;;
25069;SDS011;13064;48.162;11.536;2023-04-21T05:39:44;26.60;;;16.90;;
25069;SDS011;13064;48.162;11.536;2023-04-21T05:42:12;26.50;;;16.30;;
25069;SDS011;13064;48.162;11.536;2023-04-21T05:44:39;25.35;;;16.45;;
25069;SDS011;13064;48.162;11.536;2023-04-21T05:47:07;25.85;;;16.45;;
25069;SDS011;13064;48.162;11.536;2023-04-21T05:49:35;25.48;;;17.02;;
25069;SDS011;13064;48.162;11.536;2023-04-21T05:52:02;24.58;;;16.63;;
25069;SDS011;13064;48.162;11.536;2023-04-21T05:54:31;26.65;;;17.17;;
25069;SDS011;13064;48.162;11.536;2023-04-21T05:56:59;25.50;;;16.30;;
25069;SDS011;13064;48.162;11.536;2023-04-21T05:59:27;23.52;;;15.65;;
25069;SDS011;13064;48.162;11.536;2023-04-21T06:01:56;23.83;;;14.60;;
25069;SDS011;13064;48.162;11.536;2023-04-21T06:04:25;22.85;;;15.30;;
25069;SDS011;13064;48.162;11.536;2023-04-21T06:06:53;22.17;;;14.07;;
25069;SDS011;13064;48.162;11.536;2023-04-21T06:09:21;24.92;;;14.68;;
25069;SDS011;13064;48.162;11.536;2023-04-21T06:11:48;21.95;;;14.68;;
25069;SDS011;13064;48.162;11.536;2023-04-21T06:14:16;24.65;;;14.73;;
25069;SDS011;13064;48.162;11.536;2023-04-21T06:16:45;23.35;;;14.60;;
25069;SDS011;13064;48.162;11.536;2023-04-21T06:19:12;22.33;;;15.05;;
25069;SDS011;13064;48.162;11.536;2023-04-21T06:21:40;21.33;;;13.60;;
25069;SDS011;13064;48.162;11.536;2023-04-21T06:24:08;16.55;;;11.15;;
25069;SDS011;13064;48.162;11.536;2023-04-21T06:26:35;16.42;;;11.25;;
25069;SDS011;13064;48.162;11.536;2023-04-21T06:29:03;14.60;;;10.55;;
25069;SDS011;13064;48.162;11.536;2023-04-21T06:31:31;14.60;;;9.98;;
25069;SDS011;13064;48.162;11.536;2023-04-21T06:33:58;14.40;;;9.65;;
25069;SDS011;13064;48.162;11.536;2023-04-21T06:36:26;14.52;;;10.43;;
25069;SDS011;13064;48.162;11.536;2023-04-21T06:38:54;14.88;;;10.18;;
25069;SDS011;13064;48.162;11.536;2023-04-21T06:41:22;14.07;;;9.70;;
25069;SDS011;13064;48.162;11.536;2023-04-21T06:43:50;14.90;;;10.45;;
25069;SDS011;13064;48.162;11.536;2023-04-21T06:46:18;14.52;;;10.18;;
25069;SDS011;13064;48.162;11.536;2023-04-21T06:48:47;14.73;;;10.25;;
25069;SDS011;13064;48.162;11.536;2023-04-21T06:53:45;13.25;;;9.50;;
25069;SDS011;13064;48.162;11.536;2023-04-21T06:56:12;15.35;;;10.38;;
25069;SDS011;13064;48.162;11.536;2023-04-21T06:58:40;15.80;;;10.50;;
25069;SDS011;13064;48.162;11.536;2023-04-21T07:01:08;18.33;;;11.35;;
25069;SDS011;13064;48.162;11.536;2023-04-21T07:03:35;17.77;;;10.88;;
25069;SDS011;13064;48.162;11.536;2023-04-21T07:06:03;14.88;;;9.82;;
25069;SDS011;13064;48.162;11.536;2023-04-21T07:08:31;13.23;;;10.32;;
25069;SDS011;13064;48.162;11.536;2023-04-21T07:10:59;16.50;;;10.35;;
25069;SDS011;13064;48.162;11.536;2023-04-21T07:13:26;15.75;;;10.75;;
25069;SDS011;13064;48.162;11.536;2023-04-21T07:15:54;12.90;;;9.98;;
25069;SDS011;13064;48.162;11.536;2023-04-21T07:18:21;15.45;;;9.98;;
25069;SDS011;13064;48.162;11.536;2023-04-21T07:20:49;12.20;;;9.25;;
25069;SDS011;13064;48.162;11.536;2023-04-21T07:23:17;15.10;;;9.05;;
25069;SDS011;13064;48.162;11.536;2023-04-21T07:25:44;13.80;;;9.00;;
25069;SDS011;13064;48.162;11.536;2023-04-21T07:28:12;13.90;;;9.10;;
25069;SDS011;13064;48.162;11.536;2023-04-21T07:30:41;12.70;;;8.40;;
25069;SDS011;13064;48.162;11.536;2023-04-21T07:33:09;11.05;;;8.35;;
25069;SDS011;13064;48.162;11.536;2023-04-21T07:35:37;14.30;;;8.93;;
25069;SDS011;13064;48.162;11.536;2023-04-21T07:38:04;12.57;;;7.82;;
25069;SDS011;13064;48.162;11.536;2023-04-21T07:40:32;13.30;;;8.77;;
25069;SDS011;13064;48.162;11.536;2023-04-21T07:43:00;13.90;;;7.85;;
25069;SDS011;13064;48.162;11.536;2023-04-21T07:45:27;11.40;;;8.52;;
25069;SDS011;13064;48.162;11.536;2023-04-21T07:47:55;10.93;;;8.00;;
25069;SDS011;13064;48.162;11.536;2023-04-21T07:50:23;12.02;;;7.82;;
25069;SDS011;13064;48.162;11.536;2023-04-21T07:52:52;12.07;;;8.25;;
25069;SDS011;13064;48.162;11.536;2023-04-21T07:55:19;10.98;;;7.10;;
25069;SDS011;13064;48.162;11.536;2023-04-21T07:57:47;11.00;;;7.97;;
25069;SDS011;13064;48.162;11.536;2023-04-21T08:00:15;12.13;;;7.60;;
25069;SDS011;13064;48.162;11.536;2023-04-21T08:02:42;10.13;;;7.13;;
25069;SDS011;13064;48.162;11.536;2023-04-21T08:05:10;8.60;;;6.53;;
25069;SDS011;13064;48.162;11.536;2023-04-21T08:07:38;9.98;;;7.22;;
25069;SDS011;13064;48.162;11.536;2023-04-21T08:10:07;11.48;;;8.07;;
25069;SDS011;13064;48.162;11.536;2023-04-21T08:12:35;11.10;;;7.15;;
25069;SDS011;13064;48.162;11.536;2023-04-21T08:15:03;10.05;;;7.35;;
25069;SDS011;13064;48.162;11.536;2023-04-21T08:17:33;9.98;;;7.45;;
25069;SDS011;13064;48.162;11.536;2023-04-21T08:20:01;12.73;;;7.90;;
25069;SDS011;13064;48.162;11.536;2023-04-21T08:22:29;10.20;;;7.45;;
25069;SDS011;13064;48.162;11.536;2023-04-21T08:24:57;11.88;;;7.85;;
25069;SDS011;13064;48.162;11.536;2023-04-21T08:27:24;10.93;;;7.65;;
25069;SDS011;13064;48.162;11.536;2023-04-21T08:29:52;9.68;;;6.75;;
25069;SDS011;13064;48.162;11.536;2023-04-21T08:32:20;9.80;;;6.95;;
25069;SDS011;13064;48.162;11.536;2023-04-21T08:34:52;11.90;;;7.30;;
25069;SDS011;13064;48.162;11.536;2023-04-21T08:37:21;8.43;;;6.43;;
25069;SDS011;13064;48.162;11.536;2023-04-21T08:39:48;8.23;;;6.25;;
25069;SDS011;13064;48.162;11.536;2023-04-21T08:42:16;8.82;;;6.70;;
25069;SDS011;13064;48.162;11.536;2023-04-21T08:44:44;9.00;;;6.40;;
25069;SDS011;13064;48.162;11.536;2023-04-21T08:47:13;9.52;;;6.50;;
25069;SDS011;13064;48.162;11.536;2023-04-21T08:49:43;9.57;;;6.63;;
25069;SDS011;13064;48.162;11.536;2023-04-21T08:52:11;8.82;;;6.50;;
25069;SDS011;13064;48.162;11.536;2023-04-21T08:54:40;9.13;;;6.82;;
25069;SDS011;13064;48.162;11.536;2023-04-21T08:57:07;10.65;;;6.30;;
25069;SDS011;13064;48.162;11.536;2023-04-21T08:59:42;9.18;;;6.35;;
25069;SDS011;13064;48.162;11.536;2023-04-21T09:02:11;9.30;;;6.40;;
25069;SDS011;13064;48.162;11.536;2023-04-21T09:04:41;8.02;;;6.13;;
25069;SDS011;13064;48.162;11.536;2023-04-21T09:07:10;8.88;;;5.70;;
25069;SDS011;13064;48.162;11.536;2023-04-21T09:09:54;9.50;;;7.45;;
25069;SDS011;13064;48.162;11.536;2023-04-21T09:12:22;9.68;;;6.50;;
25069;SDS011;13064;48.162;11.536;2023-04-21T09:14:50;8.35;;;6.32;;
25069;SDS011;13064;48.162;11.536;2023-04-21T09:17:23;9.93;;;7.35;;
25069;SDS011;13064;48.162;11.536;2023-04-21T09:19:54;10.90;;;8.35;;
25069;SDS011;13064;48.162;11.536;2023-04-21T09:22:25;11.20;;;7.57;;
25069;SDS011;13064;48.162;11.536;2023-04-21T09:27:22;10.25;;;7.22;;
25069;SDS011;13064;48.162;11.536;2023-04-21T09:29:50;9.90;;;7.28;;
25069;SDS011;13064;48.162;11.536;2023-04-21T09:32:18;10.57;;;6.70;;
25069;SDS011;13064;48.162;11.536;2023-04-21T09:34:46;10.45;;;7.50;;
25069;SDS011;13064;48.162;11.536;2023-04-21T09:37:13;7.82;;;6.47;;
25069;SDS011;13064;48.162;11.536;2023-04-21T09:39:45;10.05;;;6.70;;
25069;SDS011;13064;48.162;11.536;2023-04-21T09:42:30;9.73;;;6.53;;
25069;SDS011;13064;48.162;11.536;2023-04-21T09:44:57;10.13;;;6.25;;
25069;SDS011;13064;48.162;11.536;2023-04-21T09:47:31;10.15;;;7.05;;
25069;SDS011;13064;48.162;11.536;2023-04-21T09:50:02;9.45;;;6.95;;
25069;SDS011;13064;48.162;11.536;2023-04-21T09:52:32;9.30;;;7.15;;
25069;SDS011;13064;48.162;11.536;2023-04-21T09:55:01;7.50;;;6.03;;
25069;SDS011;13064;48.162;11.536;2023-04-21T09:57:30;7.70;;;6.20;;
25069;SDS011;13064;48.162;11.536;2023-04-21T10:00:00;8.38;;;6.10;;
25069;SDS011;13064;48.162;11.536;2023-04-21T10:02:30;8.32;;;6.65;;
25069;SDS011;13064;48.162;11.536;2023-04-21T10:04:58;9.77;;;6.32;;
25069;SDS011;13064;48.162;11.536;2023-04-21T10:07:26;9.02;;;6.53;;
25069;SDS011;13064;48.162;11.536;2023-04-21T10:09:55;10.68;;;7.35;;
25069;SDS011;13064;48.162;11.536;2023-04-21T10:12:23;8.75;;;6.50;;
25069;SDS011;13064;48.162;11.536;2023-04-21T10:14:52;11.02;;;7.07;;
25069;SDS011;13064;48.162;11.536;2023-04-21T10:17:24;9.80;;;7.03;;
25069;SDS011;13064;48.162;11.536;2023-04-21T10:19:52;10.63;;;7.45;;
25069;SDS011;13064;48.162;11.536;2023-04-21T10:22:26;7.20;;;5.63;;
25069;SDS011;13064;48.162;11.536;2023-04-21T10:24:57;8.88;;;5.72;;
25069;SDS011;13064;48.162;11.536;2023-04-21T10:27:38;7.22;;;5.80;;
25069;SDS011;13064;48.162;11.536;2023-04-21T10:30:19;7.60;;;5.63;;
25069;SDS011;13064;48.162;11.536;2023-04-21T10:32:48;7.82;;;6.30;;
25069;SDS011;13064;48.162;11.536;2023-04-21T10:35:20;10.93;;;8.23;;
25069;SDS011;13064;48.162;11.536;2023-04-21T10:37:49;9.88;;;7.38;;
25069;SDS011;13064;48.162;11.536;2023-04-21T10:40:31;11.35;;;7.75;;
25069;SDS011;13064;48.162;11.536;2023-04-21T10:43:56;12.82;;;8.10;;
25069;SDS011;13064;48.162;11.536;2023-04-21T10:45:58;10.68;;;8.50;;
25069;SDS011;13064;48.162;11.536;2023-04-21T10:48:25;10.70;;;7.82;;
25069;SDS011;13064;48.162;11.536;2023-04-21T10:50:53;10.90;;;8.13;;
25069;SDS011;13064;48.162;11.536;2023-04-21T10:53:23;9.10;;;7.30;;
25069;SDS011;13064;48.162;11.536;2023-04-21T10:55:51;10.95;;;7.70;;
25069;SDS011;13064;48.162;11.536;2023-04-21T10:58:19;8.80;;;7.75;;
25069;SDS011;13064;48.162;11.536;2023-04-21T11:00:52;9.20;;;8.15;;
25069;SDS011;13064;48.162;11.536;2023-04-21T11:03:21;9.70;;;7.65;;
25069;SDS011;13064;48.162;11.536;2023-04-21T11:05:49;8.82;;;6.97;;
25069;SDS011;13064;48.162;11.536;2023-04-21T11:08:16;8.48;;;7.13;;
25069;SDS011;13064;48.162;11.536;2023-04-21T11:10:48;9.77;;;8.32;;
25069;SDS011;13064;48.162;11.536;2023-04-21T11:13:16;9.43;;;7.85;;
25069;SDS011;13064;48.162;11.536;2023-04-21T11:15:56;10.45;;;7.57;;
25069;SDS011;13064;48.162;11.536;2023-04-21T11:18:32;9.67;;;8.23;;
25069;SDS011;13064;48.162;11.536;2023-04-21T11:21:09;9.65;;;8.20;;
25069;SDS011;13064;48.162;11.536;2023-04-21T11:26:31;9.45;;;7.10;;
25069;SDS011;13064;48.162;11.536;2023-04-21T11:29:06;8.52;;;7.20;;
25069;SDS011;13064;48.162;11.536;2023-04-21T11:31:34;8.23;;;7.38;;
25069;SDS011;13064;48.162;11.536;2023-04-21T11:34:03;9.75;;;7.60;;
25069;SDS011;13064;48.162;11.536;2023-04-21T11:36:33;8.63;;;7.45;;
25069;SDS011;13064;48.162;11.536;2023-04-21T11:39:10;9.82;;;7.30;;
25069;SDS011;13064;48.162;11.536;2023-04-21T11:41:38;7.90;;;7.05;;
25069;SDS011;13064;48.162;11.536;2023-04-21T11:44:07;8.40;;;7.00;;
25069;SDS011;13064;48.162;11.536;2023-04-21T11:46:35;9.02;;;7.63;;
25069;SDS011;13064;48.162;11.536;2023-04-21T11:49:04;8.75;;;7.70;;
25069;SDS011;13064;48.162;11.536;2023-04-21T11:51:36;9.00;;;7.25;;
25069;SDS011;13064;48.162;11.536;2023-04-21T11:54:04;8.82;;;7.60;;
25069;SDS011;13064;48.162;11.536;2023-04-21T11:56:42;7.55;;;6.75;;
25069;SDS011;13064;48.162;11.536;2023-04-21T11:59:10;8.90;;;7.57;;
25069;SDS011;13064;48.162;11.536;2023-04-21T12:01:49;9.07;;;8.13;;
25069;SDS011;13064;48.162;11.536;2023-04-21T12:04:18;9.85;;;7.32;;
25069;SDS011;13064;48.162;11.536;2023-04-21T12:06:53;8.85;;;7.30;;
25069;SDS011;13064;48.162;11.536;2023-04-21T12:09:21;8.43;;;7.43;;
25069;SDS011;13064;48.162;11.536;2023-04-21T12:11:49;7.47;;;6.68;;
25069;SDS011;13064;48.162;11.536;2023-04-21T12:14:18;7.70;;;6.90;;
25069;SDS011;13064;48.162;11.536;2023-04-21T12:16:49;7.90;;;6.40;;
25069;SDS011;13064;48.162;11.536;2023-04-21T12:19:33;7.53;;;6.63;;
25069;SDS011;13064;48.162;11.536;2023-04-21T12:22:01;8.60;;;7.80;;
25069;SDS011;13064;48.162;11.536;2023-04-21T12:24:33;7.72;;;6.93;;
25069;SDS011;13064;48.162;11.536;2023-04-21T12:27:02;6.90;;;6.20;;
25069;SDS011;13064;48.162;11.536;2023-04-21T12:29:30;8.23;;;6.90;;
25069;SDS011;13064;48.162;11.536;2023-04-21T12:31:57;7.63;;;6.93;;
25069;SDS011;13064;48.162;11.536;2023-04-21T12:34:25;6.93;;;5.82;;
25069;SDS011;13064;48.162;11.536;2023-04-21T12:36:53;5.93;;;5.18;;
25069;SDS011;13064;48.162;11.536;2023-04-21T12:39:20;6.22;;;5.63;;
25069;SDS011;13064;48.162;11.536;2023-04-21T12:41:48;6.22;;;5.22;;
25069;SDS011;13064;48.162;11.536;2023-04-21T12:44:16;4.70;;;4.30;;
25069;SDS011;13064;48.162;11.536;2023-04-21T12:46:45;5.05;;;4.35;;
25069;SDS011;13064;48.162;11.536;2023-04-21T12:49:14;4.72;;;3.55;;
25069;SDS011;13064;48.162;11.536;2023-04-21T12:51:43;3.05;;;2.75;;
25069;SDS011;13064;48.162;11.536;2023-04-21T12:54:11;3.45;;;2.50;;
25069;SDS011;13064;48.162;11.536;2023-04-21T12:56:38;3.05;;;2.30;;
25069;SDS011;13064;48.162;11.536;2023-04-21T12:59:08;2.33;;;2.10;;
25069;SDS011;13064;48.162;11.536;2023-04-21T13:01:36;2.38;;;1.90;;
25069;SDS011;13064;48.162;11.536;2023-04-21T13:04:04;2.42;;;2.10;;
25069;SDS011;13064;48.162;11.536;2023-04-21T13:06:32;1.88;;;1.77;;
25069;SDS011;13064;48.162;11.536;2023-04-21T13:09:00;1.92;;;1.73;;
25069;SDS011;13064;48.162;11.536;2023-04-21T13:11:28;2.60;;;1.50;;
25069;SDS011;13064;48.162;11.536;2023-04-21T13:13:56;2.60;;;1.67;;
25069;SDS011;13064;48.162;11.536;2023-04-21T13:16:24;1.50;;;1.40;;
25069;SDS011;13064;48.162;11.536;2023-04-21T13:18:55;1.52;;;1.42;;
25069;SDS011;13064;48.162;11.536;2023-04-21T13:21:24;1.58;;;1.40;;
25069;SDS011;13064;48.162;11.536;2023-04-21T13:23:52;1.73;;;1.40;;
25069;SDS011;13064;48.162;11.536;2023-04-21T13:26:19;1.38;;;1.23;;
25069;SDS011;13064;48.162;11.536;2023-04-21T13:28:47;5.43;;;1.48;;
25069;SDS011;13064;48.162;11.536;2023-04-21T13:31:15;2.00;;;1.45;;
25069;SDS011;13064;48.162;11.536;2023-04-21T13:33:43;1.77;;;1.67;;
25069;SDS011;13064;48.162;11.536;2023-04-21T13:36:10;1.60;;;1.50;;
25069;SDS011;13064;48.162;11.536;2023-04-21T13:38:38;2.67;;;1.67;;
25069;SDS011;13064;48.162;11.536;2023-04-21T13:41:06;3.35;;;1.70;;
25069;SDS011;13064;48.162;11.536;2023-04-21T13:43:34;2.17;;;1.50;;
25069;SDS011;13064;48.162;11.536;2023-04-21T13:46:02;2.70;;;1.80;;
25069;SDS011;13064;48.162;11.536;2023-04-21T13:48:30;1.75;;;1.60;;
25069;SDS011;13064;48.162;11.536;2023-04-21T13:50:57;2.80;;;1.60;;
25069;SDS011;13064;48.162;11.536;2023-04-21T13:53:25;3.35;;;1.70;;
25069;SDS011;13064;48.162;11.536;2023-04-21T13:55:53;2.13;;;2.03;;
25069;SDS011;13064;48.162;11.536;2023-04-21T13:58:22;2.58;;;2.28;;
25069;SDS011;13064;48.162;11.536;2023-04-21T14:00:50;2.58;;;2.25;;
25069;SDS011;13064;48.162;11.536;2023-04-21T14:03:18;2.78;;;2.20;;
25069;SDS011;13064;48.162;11.536;2023-04-21T14:05:46;2.40;;;2.20;;
25069;SDS011;13064;48.162;11.536;2023-04-21T14:08:14;2.15;;;1.95;;
25069;SDS011;13064;48.162;11.536;2023-04-21T14:10:41;2.80;;;1.83;;
25069;SDS011;13064;48.162;11.536;2023-04-21T14:13:09;2.42;;;2.00;;
25069;SDS011;13064;48.162;11.536;2023-04-21T14:15:48;1.92;;;1.73;;
25069;SDS011;13064;48.162;11.536;2023-04-21T14:18:16;2.13;;;2.03;;
25069;SDS011;13064;48.162;11.536;2023-04-21T14:20:44;2.28;;;1.80;;
25069;SDS011;13064;48.162;11.536;2023-04-21T14:23:12;2.53;;;1.80;;
25069;SDS011;13064;48.162;11.536;2023-04-21T14:25:40;2.50;;;1.80;;
25069;SDS011;13064;48.162;11.536;2023-04-21T14:28:08;6.05;;;2.10;;
25069;SDS011;13064;48.162;11.536;2023-04-21T14:30:36;2.42;;;1.67;;
25069;SDS011;13064;48.162;11.536;2023-04-21T14:33:04;1.65;;;1.42;;
25069;SDS011;13064;48.162;11.536;2023-04-21T14:35:31;3.20;;;1.60;;
25069;SDS011;13064;48.162;11.536;2023-04-21T14:37:59;2.05;;;1.50;;
25069;SDS011;13064;48.162;11.536;2023-04-21T14:40:27;1.60;;;1.40;;